sensor_id;sensor_type;location;lat;lon;timestamp;temperature;humidity
59923;DHT22;45778;51.142;3.732;2022-12-10T00:01:39;-0.20;99.90
59923;DHT22;45778;51.142;3.732;2022-12-10T00:04:05;0.20;99.90
59923;DHT22;45778;51.142;3.732;2022-12-10T00:06:34;-0.40;99.90
59923;DHT22;45778;51.142;3.732;2022-12-10T00:09:02;-0.40;99.90
59923;DHT22;45778;51.142;3.732;2022-12-10T00:11:28;-0.40;99.90
59923;DHT22;45778;51.142;3.732;2022-12-10T00:13:54;-0.40;99.90
59923;DHT22;45778;51.142;3.732;2022-12-10T00:16:22;-0.40;99.90
59923;DHT22;45778;51.142;3.732;2022-12-10T00:18:48;-0.30;99.90
59923;DHT22;45778;51.142;3.732;2022-12-10T00:21:17;-0.20;99.90
59923;DHT22;45778;51.142;3.732;2022-12-10T00:23:43;-0.30;99.90
59923;DHT22;45778;51.142;3.732;2022-12-10T00:26:12;-0.30;99.90
59923;DHT22;45778;51.142;3.732;2022-12-10T00:28:39;-0.40;99.90
59923;DHT22;45778;51.142;3.732;2022-12-10T00:31:13;-0.40;99.90
59923;DHT22;45778;51.142;3.732;2022-12-10T00:33:40;-0.30;99.90
59923;DHT22;45778;51.142;3.732;2022-12-10T00:36:09;-0.30;99.90
59923;DHT22;45778;51.142;3.732;2022-12-10T00:38:35;-0.40;99.90
59923;DHT22;45778;51.142;3.732;2022-12-10T00:41:02;-0.40;99.90
59923;DHT22;45778;51.142;3.732;2022-12-10T00:43:28;-0.50;99.90
59923;DHT22;45778;51.142;3.732;2022-12-10T00:45:54;-0.20;99.90
59923;DHT22;45778;51.142;3.732;2022-12-10T00:48:20;-0.50;99.90
59923;DHT22;45778;51.142;3.732;2022-12-10T00:53:26;-0.60;99.90
59923;DHT22;45778;51.142;3.732;2022-12-10T00:55:53;-0.60;99.90
59923;DHT22;45778;51.142;3.732;2022-12-10T00:58:19;-0.60;99.90
59923;DHT22;45778;51.142;3.732;2022-12-10T01:00:46;-0.50;99.90
59923;DHT22;45778;51.142;3.732;2022-12-10T01:03:13;-0.50;99.90
59923;DHT22;45778;51.142;3.732;2022-12-10T01:05:39;-0.50;99.90
59923;DHT22;45778;51.142;3.732;2022-12-10T01:08:04;-0.30;99.90
59923;DHT22;45778;51.142;3.732;2022-12-10T01:10:30;-0.50;99.90
59923;DHT22;45778;51.142;3.732;2022-12-10T01:12:56;-0.30;99.90
59923;DHT22;45778;51.142;3.732;2022-12-10T01:15:21;-0.30;99.90
59923;DHT22;45778;51.142;3.732;2022-12-10T01:17:47;-0.40;99.90
59923;DHT22;45778;51.142;3.732;2022-12-10T01:20:13;-0.40;99.90
59923;DHT22;45778;51.142;3.732;2022-12-10T01:22:39;-0.40;99.90
59923;DHT22;45778;51.142;3.732;2022-12-10T01:25:05;-0.30;99.90
59923;DHT22;45778;51.142;3.732;2022-12-10T01:27:30;-0.60;99.90
59923;DHT22;45778;51.142;3.732;2022-12-10T01:29:56;-0.30;99.90
59923;DHT22;45778;51.142;3.732;2022-12-10T01:32:22;-0.50;99.90
59923;DHT22;45778;51.142;3.732;2022-12-10T01:34:48;-0.50;99.90
59923;DHT22;45778;51.142;3.732;2022-12-10T01:37:13;-0.50;99.90
59923;DHT22;45778;51.142;3.732;2022-12-10T01:39:39;-0.30;99.90
59923;DHT22;45778;51.142;3.732;2022-12-10T01:42:05;-0.50;99.90
59923;DHT22;45778;51.142;3.732;2022-12-10T01:46:58;-0.50;99.90
59923;DHT22;45778;51.142;3.732;2022-12-10T01:49:36;-0.50;99.90
59923;DHT22;45778;51.142;3.732;2022-12-10T01:52:04;-0.60;99.90
59923;DHT22;45778;51.142;3.732;2022-12-10T01:54:36;-0.60;99.90
59923;DHT22;45778;51.142;3.732;2022-12-10T01:57:18;-0.50;99.90
59923;DHT22;45778;51.142;3.732;2022-12-10T01:59:58;-0.60;99.90
59923;DHT22;45778;51.142;3.732;2022-12-10T02:05:41;-0.70;99.90
59923;DHT22;45778;51.142;3.732;2022-12-10T02:08:26;-0.70;99.90
59923;DHT22;45778;51.142;3.732;2022-12-10T02:14:11;-0.70;99.90
59923;DHT22;45778;51.142;3.732;2022-12-10T02:17:02;-0.70;99.90
59923;DHT22;45778;51.142;3.732;2022-12-10T02:20:06;-0.60;99.90
59923;DHT22;45778;51.142;3.732;2022-12-10T02:22:41;-0.70;99.90
59923;DHT22;45778;51.142;3.732;2022-12-10T02:25:10;-0.70;99.90
59923;DHT22;45778;51.142;3.732;2022-12-10T02:27:53;-0.30;99.90
59923;DHT22;45778;51.142;3.732;2022-12-10T02:30:20;-0.80;99.90
59923;DHT22;45778;51.142;3.732;2022-12-10T02:32:48;-0.70;99.90
59923;DHT22;45778;51.142;3.732;2022-12-10T02:35:24;-0.60;99.90
59923;DHT22;45778;51.142;3.732;2022-12-10T02:38:36;-0.50;99.90
59923;DHT22;45778;51.142;3.732;2022-12-10T02:40:46;-0.50;99.90
59923;DHT22;45778;51.142;3.732;2022-12-10T02:43:14;-0.40;99.90
59923;DHT22;45778;51.142;3.732;2022-12-10T02:45:41;-0.40;99.90
59923;DHT22;45778;51.142;3.732;2022-12-10T02:48:08;-0.50;99.90
59923;DHT22;45778;51.142;3.732;2022-12-10T02:50:35;-0.50;99.90
59923;DHT22;45778;51.142;3.732;2022-12-10T02:53:01;-0.30;99.90
59923;DHT22;45778;51.142;3.732;2022-12-10T02:55:37;-0.40;99.90
59923;DHT22;45778;51.142;3.732;2022-12-10T02:58:25;-0.40;99.90
59923;DHT22;45778;51.142;3.732;2022-12-10T03:01:02;-0.30;99.90
59923;DHT22;45778;51.142;3.732;2022-12-10T03:03:59;-0.20;99.90
59923;DHT22;45778;51.142;3.732;2022-12-10T03:06:56;-0.10;99.90
59923;DHT22;45778;51.142;3.732;2022-12-10T03:09:29;0.00;99.90
59923;DHT22;45778;51.142;3.732;2022-12-10T03:12:05;0.00;99.90
59923;DHT22;45778;51.142;3.732;2022-12-10T03:14:32;0.00;99.90
59923;DHT22;45778;51.142;3.732;2022-12-10T03:17:00;0.00;99.90
59923;DHT22;45778;51.142;3.732;2022-12-10T03:19:37;0.10;99.90
59923;DHT22;45778;51.142;3.732;2022-12-10T03:22:04;0.10;99.90
59923;DHT22;45778;51.142;3.732;2022-12-10T03:24:33;0.20;99.90
59923;DHT22;45778;51.142;3.732;2022-12-10T03:27:02;0.30;99.90
59923;DHT22;45778;51.142;3.732;2022-12-10T03:29:35;0.40;99.90
59923;DHT22;45778;51.142;3.732;2022-12-10T03:32:02;0.50;99.90
59923;DHT22;45778;51.142;3.732;2022-12-10T03:34:28;0.50;99.90
59923;DHT22;45778;51.142;3.732;2022-12-10T03:36:55;0.60;99.90
59923;DHT22;45778;51.142;3.732;2022-12-10T03:39:21;0.80;99.90
59923;DHT22;45778;51.142;3.732;2022-12-10T03:41:47;0.30;99.90
59923;DHT22;45778;51.142;3.732;2022-12-10T03:44:13;0.40;99.90
59923;DHT22;45778;51.142;3.732;2022-12-10T03:46:39;0.40;99.90
59923;DHT22;45778;51.142;3.732;2022-12-10T03:49:05;0.60;99.90
59923;DHT22;45778;51.142;3.732;2022-12-10T03:51:31;0.50;99.90
59923;DHT22;45778;51.142;3.732;2022-12-10T03:53:56;0.50;99.90
59923;DHT22;45778;51.142;3.732;2022-12-10T03:56:22;0.50;99.90
59923;DHT22;45778;51.142;3.732;2022-12-10T03:58:48;0.50;99.90
59923;DHT22;45778;51.142;3.732;2022-12-10T04:01:14;0.40;99.90
59923;DHT22;45778;51.142;3.732;2022-12-10T04:03:41;0.40;99.90
59923;DHT22;45778;51.142;3.732;2022-12-10T04:06:18;0.50;99.90
59923;DHT22;45778;51.142;3.732;2022-12-10T04:08:45;0.40;99.90
59923;DHT22;45778;51.142;3.732;2022-12-10T04:11:12;0.40;99.90
59923;DHT22;45778;51.142;3.732;2022-12-10T04:13:39;0.30;99.90
59923;DHT22;45778;51.142;3.732;2022-12-10T04:16:24;0.30;99.90
59923;DHT22;45778;51.142;3.732;2022-12-10T04:19:01;0.40;99.90
59923;DHT22;45778;51.142;3.732;2022-12-10T04:21:29;0.40;99.90
59923;DHT22;45778;51.142;3.732;2022-12-10T04:24:14;0.20;99.90
59923;DHT22;45778;51.142;3.732;2022-12-10T04:27:02;0.20;99.90
59923;DHT22;45778;51.142;3.732;2022-12-10T04:29:30;0.20;99.90
59923;DHT22;45778;51.142;3.732;2022-12-10T04:31:56;0.20;99.90
59923;DHT22;45778;51.142;3.732;2022-12-10T04:34:23;0.40;99.90
59923;DHT22;45778;51.142;3.732;2022-12-10T04:36:49;0.30;99.90
59923;DHT22;45778;51.142;3.732;2022-12-10T04:39:15;0.20;99.90
59923;DHT22;45778;51.142;3.732;2022-12-10T04:41:42;0.30;99.90
59923;DHT22;45778;51.142;3.732;2022-12-10T04:44:09;0.30;99.90
59923;DHT22;45778;51.142;3.732;2022-12-10T04:46:35;0.40;99.90
59923;DHT22;45778;51.142;3.732;2022-12-10T04:49:01;0.50;99.90
59923;DHT22;45778;51.142;3.732;2022-12-10T04:51:26;0.40;99.90
59923;DHT22;45778;51.142;3.732;2022-12-10T04:53:52;0.40;99.90
59923;DHT22;45778;51.142;3.732;2022-12-10T04:56:18;0.50;99.90
59923;DHT22;45778;51.142;3.732;2022-12-10T04:58:44;0.40;99.90
59923;DHT22;45778;51.142;3.732;2022-12-10T05:01:10;0.40;99.90
59923;DHT22;45778;51.142;3.732;2022-12-10T05:03:37;0.50;99.90
59923;DHT22;45778;51.142;3.732;2022-12-10T05:06:09;0.40;99.90
59923;DHT22;45778;51.142;3.732;2022-12-10T05:08:36;0.40;99.90
59923;DHT22;45778;51.142;3.732;2022-12-10T05:11:09;0.50;99.90
59923;DHT22;45778;51.142;3.732;2022-12-10T05:13:36;0.50;99.90
59923;DHT22;45778;51.142;3.732;2022-12-10T05:16:03;0.50;99.90
59923;DHT22;45778;51.142;3.732;2022-12-10T05:18:29;0.60;99.90
59923;DHT22;45778;51.142;3.732;2022-12-10T05:20:58;0.50;99.90
59923;DHT22;45778;51.142;3.732;2022-12-10T05:23:24;0.40;99.90
59923;DHT22;45778;51.142;3.732;2022-12-10T05:26:04;0.40;99.90
59923;DHT22;45778;51.142;3.732;2022-12-10T05:28:31;0.40;99.90
59923;DHT22;45778;51.142;3.732;2022-12-10T05:30:57;0.50;99.90
59923;DHT22;45778;51.142;3.732;2022-12-10T05:33:23;0.60;99.90
59923;DHT22;45778;51.142;3.732;2022-12-10T05:36:01;0.60;99.90
59923;DHT22;45778;51.142;3.732;2022-12-10T05:38:28;0.50;99.90
59923;DHT22;45778;51.142;3.732;2022-12-10T05:40:54;0.50;99.90
59923;DHT22;45778;51.142;3.732;2022-12-10T05:43:20;0.40;99.90
59923;DHT22;45778;51.142;3.732;2022-12-10T05:45:46;0.50;99.90
59923;DHT22;45778;51.142;3.732;2022-12-10T05:48:14;0.40;99.90
59923;DHT22;45778;51.142;3.732;2022-12-10T05:50:41;0.30;99.90
59923;DHT22;45778;51.142;3.732;2022-12-10T05:53:07;0.40;99.90
59923;DHT22;45778;51.142;3.732;2022-12-10T05:55:32;0.40;99.90
59923;DHT22;45778;51.142;3.732;2022-12-10T05:57:59;0.40;99.90
59923;DHT22;45778;51.142;3.732;2022-12-10T06:00:26;0.40;99.90
59923;DHT22;45778;51.142;3.732;2022-12-10T06:02:52;0.40;99.90
59923;DHT22;45778;51.142;3.732;2022-12-10T06:05:18;0.30;99.90
59923;DHT22;45778;51.142;3.732;2022-12-10T06:07:44;0.40;99.90
59923;DHT22;45778;51.142;3.732;2022-12-10T06:10:10;0.40;99.90
59923;DHT22;45778;51.142;3.732;2022-12-10T06:12:37;0.60;99.90
59923;DHT22;45778;51.142;3.732;2022-12-10T06:15:03;0.30;99.90
59923;DHT22;45778;51.142;3.732;2022-12-10T06:17:29;0.30;99.90
59923;DHT22;45778;51.142;3.732;2022-12-10T06:19:55;0.30;99.90
59923;DHT22;45778;51.142;3.732;2022-12-10T06:22:20;0.40;99.90
59923;DHT22;45778;51.142;3.732;2022-12-10T06:24:46;0.40;99.90
59923;DHT22;45778;51.142;3.732;2022-12-10T06:27:12;0.40;99.90
59923;DHT22;45778;51.142;3.732;2022-12-10T06:29:37;0.30;99.90
59923;DHT22;45778;51.142;3.732;2022-12-10T06:32:03;0.20;99.90
59923;DHT22;45778;51.142;3.732;2022-12-10T06:34:29;0.20;99.90
59923;DHT22;45778;51.142;3.732;2022-12-10T06:36:55;0.40;99.90
59923;DHT22;45778;51.142;3.732;2022-12-10T06:39:20;0.30;99.90
59923;DHT22;45778;51.142;3.732;2022-12-10T06:41:46;0.30;99.90
59923;DHT22;45778;51.142;3.732;2022-12-10T06:44:12;0.50;99.90
59923;DHT22;45778;51.142;3.732;2022-12-10T06:46:40;0.30;99.90
59923;DHT22;45778;51.142;3.732;2022-12-10T06:49:06;0.30;99.90
59923;DHT22;45778;51.142;3.732;2022-12-10T06:51:32;0.30;99.90
59923;DHT22;45778;51.142;3.732;2022-12-10T06:53:58;0.30;99.90
59923;DHT22;45778;51.142;3.732;2022-12-10T06:56:24;0.20;99.90
59923;DHT22;45778;51.142;3.732;2022-12-10T06:58:50;0.40;99.90
59923;DHT22;45778;51.142;3.732;2022-12-10T07:01:21;0.40;99.90
59923;DHT22;45778;51.142;3.732;2022-12-10T07:03:52;0.30;99.90
59923;DHT22;45778;51.142;3.732;2022-12-10T07:06:19;0.50;99.90
59923;DHT22;45778;51.142;3.732;2022-12-10T07:08:45;0.40;99.90
59923;DHT22;45778;51.142;3.732;2022-12-10T07:11:14;0.90;99.90
59923;DHT22;45778;51.142;3.732;2022-12-10T07:13:40;0.40;99.90
59923;DHT22;45778;51.142;3.732;2022-12-10T07:18:39;0.50;99.90
59923;DHT22;45778;51.142;3.732;2022-12-10T07:21:31;0.40;99.90
59923;DHT22;45778;51.142;3.732;2022-12-10T07:24:00;0.40;99.90
59923;DHT22;45778;51.142;3.732;2022-12-10T07:26:31;0.50;99.90
59923;DHT22;45778;51.142;3.732;2022-12-10T07:28:58;0.60;99.90
59923;DHT22;45778;51.142;3.732;2022-12-10T07:31:25;0.60;99.90
59923;DHT22;45778;51.142;3.732;2022-12-10T07:33:52;0.50;99.90
59923;DHT22;45778;51.142;3.732;2022-12-10T07:36:19;0.90;99.90
59923;DHT22;45778;51.142;3.732;2022-12-10T07:38:45;0.50;99.90
59923;DHT22;45778;51.142;3.732;2022-12-10T07:41:12;0.40;99.90
59923;DHT22;45778;51.142;3.732;2022-12-10T07:43:40;0.80;99.90
59923;DHT22;45778;51.142;3.732;2022-12-10T07:46:08;0.60;99.90
59923;DHT22;45778;51.142;3.732;2022-12-10T07:48:35;0.60;99.90
59923;DHT22;45778;51.142;3.732;2022-12-10T07:51:01;0.70;99.90
59923;DHT22;45778;51.142;3.732;2022-12-10T07:53:27;1.20;99.90
59923;DHT22;45778;51.142;3.732;2022-12-10T07:55:52;0.70;99.90
59923;DHT22;45778;51.142;3.732;2022-12-10T07:58:18;0.60;99.90
59923;DHT22;45778;51.142;3.732;2022-12-10T08:00:44;0.60;99.90
59923;DHT22;45778;51.142;3.732;2022-12-10T08:03:09;0.60;99.90
59923;DHT22;45778;51.142;3.732;2022-12-10T08:05:35;0.80;99.90
59923;DHT22;45778;51.142;3.732;2022-12-10T08:08:01;1.20;99.90
59923;DHT22;45778;51.142;3.732;2022-12-10T08:10:27;1.00;99.90
59923;DHT22;45778;51.142;3.732;2022-12-10T08:12:53;0.80;99.90
59923;DHT22;45778;51.142;3.732;2022-12-10T08:15:18;0.70;99.90
59923;DHT22;45778;51.142;3.732;2022-12-10T08:17:44;0.70;99.90
59923;DHT22;45778;51.142;3.732;2022-12-10T08:20:10;0.70;99.90
59923;DHT22;45778;51.142;3.732;2022-12-10T08:22:35;0.70;99.90
59923;DHT22;45778;51.142;3.732;2022-12-10T08:25:02;1.10;99.90
59923;DHT22;45778;51.142;3.732;2022-12-10T08:27:28;0.80;99.90
59923;DHT22;45778;51.142;3.732;2022-12-10T08:29:53;1.10;99.90
59923;DHT22;45778;51.142;3.732;2022-12-10T08:32:19;0.70;99.90
59923;DHT22;45778;51.142;3.732;2022-12-10T08:34:45;0.70;99.90
59923;DHT22;45778;51.142;3.732;2022-12-10T08:37:10;1.10;99.90
59923;DHT22;45778;51.142;3.732;2022-12-10T08:39:36;0.70;99.90
59923;DHT22;45778;51.142;3.732;2022-12-10T08:42:02;0.90;99.90
59923;DHT22;45778;51.142;3.732;2022-12-10T08:44:28;1.00;99.90
59923;DHT22;45778;51.142;3.732;2022-12-10T08:46:53;1.00;99.90
59923;DHT22;45778;51.142;3.732;2022-12-10T08:49:19;0.90;99.90
59923;DHT22;45778;51.142;3.732;2022-12-10T08:51:45;1.00;99.90
59923;DHT22;45778;51.142;3.732;2022-12-10T08:54:10;1.10;99.90
59923;DHT22;45778;51.142;3.732;2022-12-10T08:56:36;1.20;99.90
59923;DHT22;45778;51.142;3.732;2022-12-10T08:59:04;1.20;99.90
59923;DHT22;45778;51.142;3.732;2022-12-10T09:01:30;1.30;99.90
59923;DHT22;45778;51.142;3.732;2022-12-10T09:03:55;1.30;99.90
59923;DHT22;45778;51.142;3.732;2022-12-10T09:06:23;1.70;99.90
59923;DHT22;45778;51.142;3.732;2022-12-10T09:08:53;1.40;99.90
59923;DHT22;45778;51.142;3.732;2022-12-10T09:11:27;1.20;99.90
59923;DHT22;45778;51.142;3.732;2022-12-10T09:13:54;1.20;99.90
59923;DHT22;45778;51.142;3.732;2022-12-10T09:16:20;1.10;99.90
59923;DHT22;45778;51.142;3.732;2022-12-10T09:18:46;1.20;99.90
59923;DHT22;45778;51.142;3.732;2022-12-10T09:21:16;1.20;99.90
59923;DHT22;45778;51.142;3.732;2022-12-10T09:23:43;1.10;99.90
59923;DHT22;45778;51.142;3.732;2022-12-10T09:26:11;1.20;99.90
59923;DHT22;45778;51.142;3.732;2022-12-10T09:28:37;1.40;99.90
59923;DHT22;45778;51.142;3.732;2022-12-10T09:31:04;1.40;99.90
59923;DHT22;45778;51.142;3.732;2022-12-10T09:33:31;1.30;99.90
59923;DHT22;45778;51.142;3.732;2022-12-10T09:35:57;1.40;99.90
59923;DHT22;45778;51.142;3.732;2022-12-10T09:38:23;1.40;99.90
59923;DHT22;45778;51.142;3.732;2022-12-10T09:44:09;1.30;99.90
59923;DHT22;45778;51.142;3.732;2022-12-10T09:51:48;1.20;99.90
59923;DHT22;45778;51.142;3.732;2022-12-10T09:56:48;1.70;99.90
59923;DHT22;45778;51.142;3.732;2022-12-10T10:01:44;1.90;99.90
59923;DHT22;45778;51.142;3.732;2022-12-10T10:04:11;2.00;99.90
59923;DHT22;45778;51.142;3.732;2022-12-10T10:06:37;2.00;99.90
59923;DHT22;45778;51.142;3.732;2022-12-10T10:09:04;2.10;99.90
59923;DHT22;45778;51.142;3.732;2022-12-10T10:11:32;2.20;99.90
59923;DHT22;45778;51.142;3.732;2022-12-10T10:14:03;2.30;99.90
59923;DHT22;45778;51.142;3.732;2022-12-10T10:16:34;2.20;99.90
59923;DHT22;45778;51.142;3.732;2022-12-10T10:19:11;2.30;99.90
59923;DHT22;45778;51.142;3.732;2022-12-10T10:21:42;2.50;99.90
59923;DHT22;45778;51.142;3.732;2022-12-10T10:24:16;2.50;99.90
59923;DHT22;45778;51.142;3.732;2022-12-10T10:26:43;2.50;99.90
59923;DHT22;45778;51.142;3.732;2022-12-10T10:29:12;2.20;99.90
59923;DHT22;45778;51.142;3.732;2022-12-10T10:31:41;2.20;99.90
59923;DHT22;45778;51.142;3.732;2022-12-10T10:34:21;2.60;99.90
59923;DHT22;45778;51.142;3.732;2022-12-10T10:36:52;2.10;99.90
59923;DHT22;45778;51.142;3.732;2022-12-10T10:39:29;2.40;99.90
59923;DHT22;45778;51.142;3.732;2022-12-10T10:41:57;2.80;99.90
59923;DHT22;45778;51.142;3.732;2022-12-10T10:44:26;2.40;99.90
59923;DHT22;45778;51.142;3.732;2022-12-10T10:46:56;2.30;99.90
59923;DHT22;45778;51.142;3.732;2022-12-10T10:49:25;2.20;99.90
59923;DHT22;45778;51.142;3.732;2022-12-10T10:51:53;2.40;99.90
59923;DHT22;45778;51.142;3.732;2022-12-10T10:57:56;2.50;99.90
59923;DHT22;45778;51.142;3.732;2022-12-10T11:00:04;2.60;99.90
59923;DHT22;45778;51.142;3.732;2022-12-10T11:02:34;2.50;99.90
59923;DHT22;45778;51.142;3.732;2022-12-10T11:05:30;2.40;99.90
59923;DHT22;45778;51.142;3.732;2022-12-10T11:08:13;2.40;99.90
59923;DHT22;45778;51.142;3.732;2022-12-10T11:10:50;2.20;99.90
59923;DHT22;45778;51.142;3.732;2022-12-10T11:13:25;2.20;99.90
59923;DHT22;45778;51.142;3.732;2022-12-10T11:18:41;2.20;99.90
59923;DHT22;45778;51.142;3.732;2022-12-10T11:21:18;2.30;99.90
59923;DHT22;45778;51.142;3.732;2022-12-10T11:23:56;2.50;99.90
59923;DHT22;45778;51.142;3.732;2022-12-10T11:26:55;2.80;99.90
59923;DHT22;45778;51.142;3.732;2022-12-10T11:51:17;2.60;99.90
59923;DHT22;45778;51.142;3.732;2022-12-10T12:04:40;3.30;99.90
59923;DHT22;45778;51.142;3.732;2022-12-10T12:13:10;3.30;99.90
59923;DHT22;45778;51.142;3.732;2022-12-10T12:15:43;3.30;99.90
59923;DHT22;45778;51.142;3.732;2022-12-10T12:18:21;3.30;99.90
59923;DHT22;45778;51.142;3.732;2022-12-10T12:20:53;3.30;99.90
59923;DHT22;45778;51.142;3.732;2022-12-10T12:25:53;3.80;99.90
59923;DHT22;45778;51.142;3.732;2022-12-10T12:30:51;3.70;99.90
59923;DHT22;45778;51.142;3.732;2022-12-10T12:36:00;3.50;99.90
59923;DHT22;45778;51.142;3.732;2022-12-10T12:39:06;3.60;99.90
59923;DHT22;45778;51.142;3.732;2022-12-10T12:41:40;3.60;99.90
59923;DHT22;45778;51.142;3.732;2022-12-10T12:44:19;3.60;99.90
59923;DHT22;45778;51.142;3.732;2022-12-10T12:46:48;3.50;99.90
59923;DHT22;45778;51.142;3.732;2022-12-10T12:49:24;3.40;99.90
59923;DHT22;45778;51.142;3.732;2022-12-10T12:54:19;3.40;99.90
59923;DHT22;45778;51.142;3.732;2022-12-10T12:57:14;3.40;99.90
59923;DHT22;45778;51.142;3.732;2022-12-10T13:00:14;3.30;99.90
59923;DHT22;45778;51.142;3.732;2022-12-10T13:03:02;3.40;99.90
59923;DHT22;45778;51.142;3.732;2022-12-10T13:05:34;3.60;99.90
59923;DHT22;45778;51.142;3.732;2022-12-10T13:22:10;4.10;99.90
59923;DHT22;45778;51.142;3.732;2022-12-10T13:29:56;3.80;99.90
59923;DHT22;45778;51.142;3.732;2022-12-10T13:37:57;3.40;99.90
59923;DHT22;45778;51.142;3.732;2022-12-10T13:48:56;3.70;99.90
59923;DHT22;45778;51.142;3.732;2022-12-10T13:54:17;4.70;99.90
59923;DHT22;45778;51.142;3.732;2022-12-10T14:07:48;3.80;99.90
59923;DHT22;45778;51.142;3.732;2022-12-10T14:10:17;3.70;99.90
59923;DHT22;45778;51.142;3.732;2022-12-10T14:12:44;3.50;99.90
59923;DHT22;45778;51.142;3.732;2022-12-10T14:15:18;3.40;99.90
59923;DHT22;45778;51.142;3.732;2022-12-10T14:17:49;3.50;99.90
59923;DHT22;45778;51.142;3.732;2022-12-10T14:20:23;3.50;99.90
59923;DHT22;45778;51.142;3.732;2022-12-10T14:22:53;3.70;99.90
59923;DHT22;45778;51.142;3.732;2022-12-10T14:25:44;3.80;99.90
59923;DHT22;45778;51.142;3.732;2022-12-10T14:28:15;4.10;99.90
59923;DHT22;45778;51.142;3.732;2022-12-10T14:30:48;3.90;99.90
59923;DHT22;45778;51.142;3.732;2022-12-10T14:33:21;3.90;99.90
59923;DHT22;45778;51.142;3.732;2022-12-10T14:35:48;3.80;99.90
59923;DHT22;45778;51.142;3.732;2022-12-10T14:38:23;3.80;99.90
59923;DHT22;45778;51.142;3.732;2022-12-10T14:40:53;3.70;99.90
59923;DHT22;45778;51.142;3.732;2022-12-10T14:43:24;3.70;99.90
59923;DHT22;45778;51.142;3.732;2022-12-10T14:45:57;3.80;99.90
59923;DHT22;45778;51.142;3.732;2022-12-10T14:48:24;3.70;99.90
59923;DHT22;45778;51.142;3.732;2022-12-10T14:50:51;3.70;99.90
59923;DHT22;45778;51.142;3.732;2022-12-10T14:53:23;3.70;99.90
59923;DHT22;45778;51.142;3.732;2022-12-10T14:55:55;3.70;99.90
59923;DHT22;45778;51.142;3.732;2022-12-10T14:58:40;3.70;99.90
59923;DHT22;45778;51.142;3.732;2022-12-10T15:01:16;3.80;99.90
59923;DHT22;45778;51.142;3.732;2022-12-10T15:03:45;3.80;99.90
59923;DHT22;45778;51.142;3.732;2022-12-10T15:06:15;3.70;99.90
59923;DHT22;45778;51.142;3.732;2022-12-10T15:08:43;3.80;99.90
59923;DHT22;45778;51.142;3.732;2022-12-10T15:11:19;3.80;99.90
59923;DHT22;45778;51.142;3.732;2022-12-10T15:13:51;3.60;99.90
59923;DHT22;45778;51.142;3.732;2022-12-10T15:16:40;3.70;99.90
59923;DHT22;45778;51.142;3.732;2022-12-10T15:19:15;3.90;99.90
59923;DHT22;45778;51.142;3.732;2022-12-10T15:21:43;3.70;99.90
59923;DHT22;45778;51.142;3.732;2022-12-10T15:24:16;3.60;99.90
59923;DHT22;45778;51.142;3.732;2022-12-10T15:26:44;3.70;99.90
59923;DHT22;45778;51.142;3.732;2022-12-10T15:32:08;3.70;99.90
59923;DHT22;45778;51.142;3.732;2022-12-10T15:34:42;3.70;99.90
59923;DHT22;45778;51.142;3.732;2022-12-10T15:37:39;3.10;99.90
59923;DHT22;45778;51.142;3.732;2022-12-10T15:40:21;3.00;99.90
59923;DHT22;45778;51.142;3.732;2022-12-10T15:42:47;2.90;99.90
59923;DHT22;45778;51.142;3.732;2022-12-10T15:47:41;2.70;99.90
59923;DHT22;45778;51.142;3.732;2022-12-10T15:50:08;2.80;99.90
59923;DHT22;45778;51.142;3.732;2022-12-10T15:52:34;2.90;99.90
59923;DHT22;45778;51.142;3.732;2022-12-10T15:55:01;2.80;99.90
59923;DHT22;45778;51.142;3.732;2022-12-10T15:57:33;2.90;99.90
59923;DHT22;45778;51.142;3.732;2022-12-10T16:00:03;2.70;99.90
59923;DHT22;45778;51.142;3.732;2022-12-10T16:02:39;2.50;99.90
59923;DHT22;45778;51.142;3.732;2022-12-10T16:05:35;2.60;99.90
59923;DHT22;45778;51.142;3.732;2022-12-10T16:10:38;2.40;99.90
59923;DHT22;45778;51.142;3.732;2022-12-10T16:13:13;2.50;99.90
59923;DHT22;45778;51.142;3.732;2022-12-10T16:15:54;2.50;99.90
59923;DHT22;45778;51.142;3.732;2022-12-10T16:18:22;2.20;99.90
59923;DHT22;45778;51.142;3.732;2022-12-10T16:20:47;2.20;99.90
59923;DHT22;45778;51.142;3.732;2022-12-10T16:23:13;2.10;99.90
59923;DHT22;45778;51.142;3.732;2022-12-10T16:25:41;2.00;99.90
59923;DHT22;45778;51.142;3.732;2022-12-10T16:28:18;2.00;99.90
59923;DHT22;45778;51.142;3.732;2022-12-10T16:30:49;2.00;99.90
59923;DHT22;45778;51.142;3.732;2022-12-10T16:33:18;2.00;99.90
59923;DHT22;45778;51.142;3.732;2022-12-10T16:35:45;2.20;99.90
59923;DHT22;45778;51.142;3.732;2022-12-10T16:38:11;2.20;99.90
59923;DHT22;45778;51.142;3.732;2022-12-10T16:40:38;2.00;99.90
59923;DHT22;45778;51.142;3.732;2022-12-10T16:43:04;1.90;99.90
59923;DHT22;45778;51.142;3.732;2022-12-10T16:45:34;1.90;99.90
59923;DHT22;45778;51.142;3.732;2022-12-10T16:48:00;2.00;99.90
59923;DHT22;45778;51.142;3.732;2022-12-10T16:50:27;2.00;99.90
59923;DHT22;45778;51.142;3.732;2022-12-10T16:52:54;1.90;99.90
59923;DHT22;45778;51.142;3.732;2022-12-10T16:55:23;1.80;99.90
59923;DHT22;45778;51.142;3.732;2022-12-10T16:57:49;2.00;99.90
59923;DHT22;45778;51.142;3.732;2022-12-10T17:00:17;1.70;99.90
59923;DHT22;45778;51.142;3.732;2022-12-10T17:02:45;1.70;99.90
59923;DHT22;45778;51.142;3.732;2022-12-10T17:05:28;1.90;99.90
59923;DHT22;45778;51.142;3.732;2022-12-10T17:07:54;1.90;99.90
59923;DHT22;45778;51.142;3.732;2022-12-10T17:10:20;1.90;99.90
59923;DHT22;45778;51.142;3.732;2022-12-10T17:13:10;1.90;99.90
59923;DHT22;45778;51.142;3.732;2022-12-10T17:15:37;1.80;99.90
59923;DHT22;45778;51.142;3.732;2022-12-10T17:18:03;1.80;99.90
59923;DHT22;45778;51.142;3.732;2022-12-10T17:20:29;1.80;99.90
59923;DHT22;45778;51.142;3.732;2022-12-10T17:22:55;1.90;99.90
59923;DHT22;45778;51.142;3.732;2022-12-10T17:25:21;1.90;99.90
59923;DHT22;45778;51.142;3.732;2022-12-10T17:27:46;1.90;99.90
59923;DHT22;45778;51.142;3.732;2022-12-10T17:30:16;1.90;99.90
59923;DHT22;45778;51.142;3.732;2022-12-10T17:32:42;1.90;99.90
59923;DHT22;45778;51.142;3.732;2022-12-10T17:35:09;1.80;99.90
59923;DHT22;45778;51.142;3.732;2022-12-10T17:37:36;1.80;99.90
59923;DHT22;45778;51.142;3.732;2022-12-10T17:40:24;1.80;99.90
59923;DHT22;45778;51.142;3.732;2022-12-10T17:42:49;1.80;99.90
59923;DHT22;45778;51.142;3.732;2022-12-10T17:45:17;1.90;99.90
59923;DHT22;45778;51.142;3.732;2022-12-10T17:47:44;1.80;99.90
59923;DHT22;45778;51.142;3.732;2022-12-10T17:50:27;1.80;99.90
59923;DHT22;45778;51.142;3.732;2022-12-10T17:52:55;1.90;99.90
59923;DHT22;45778;51.142;3.732;2022-12-10T17:55:20;2.00;99.90
59923;DHT22;45778;51.142;3.732;2022-12-10T17:57:46;2.00;99.90
59923;DHT22;45778;51.142;3.732;2022-12-10T18:00:16;2.00;99.90
59923;DHT22;45778;51.142;3.732;2022-12-10T18:02:42;2.00;99.90
59923;DHT22;45778;51.142;3.732;2022-12-10T18:05:08;2.00;99.90
59923;DHT22;45778;51.142;3.732;2022-12-10T18:07:34;1.90;99.90
59923;DHT22;45778;51.142;3.732;2022-12-10T18:10:00;1.90;99.90
59923;DHT22;45778;51.142;3.732;2022-12-10T18:12:26;1.90;99.90
59923;DHT22;45778;51.142;3.732;2022-12-10T18:14:52;1.90;99.90
59923;DHT22;45778;51.142;3.732;2022-12-10T18:17:18;1.90;99.90